Terminal Aerodrome Forecast
Issued by NWS

Home | Current Version | Previous Version | Graphics & Text | Print | Product List | Glossary On
Versions: 1 2 3 4 5 6 7 8 9 10 11 12 13 14 15 16 17 18 19 20 21 22 23 24
000
FTUS43 KBIS 281904 AAA
TAFMOT
TAF AMD
KMOT 281904Z 2819/2918 30027G39KT P6SM VCSH FEW060 BKN090
     FM282100 32021G32KT P6SM VCSH BKN090
     FM290200 31017G27KT P6SM BKN080
     FM290400 32010KT P6SM BKN070
     FM291200 31013KT P6SM OVC030
     FM291600 32016G25KT P6SM BKN035=

USA.gov is the U.S. government's official web portal to all federal, state and local government web resources and services.